createdAt,value
2019-05-17T00:01:37.560Z,90.40
2019-05-17T00:04:07.380Z,90.40
2019-05-17T00:06:37.337Z,90.30
2019-05-17T00:09:08.214Z,90.30
2019-05-17T00:11:37.594Z,90.40
2019-05-17T00:14:07.045Z,90.30
2019-05-17T00:16:37.518Z,90.30
2019-05-17T00:19:07.601Z,90.30
2019-05-17T00:21:37.216Z,90.30
2019-05-17T00:24:06.889Z,90.40
2019-05-17T00:26:37.218Z,90.50
2019-05-17T00:29:17.417Z,90.70
2019-05-17T00:31:46.758Z,90.70
2019-05-17T00:34:16.795Z,91.00
2019-05-17T00:36:47.025Z,91.10
2019-05-17T00:39:16.908Z,91.20
2019-05-17T00:41:47.125Z,91.20
2019-05-17T00:44:16.891Z,91.30
2019-05-17T00:46:46.878Z,91.40
2019-05-17T00:49:17.338Z,91.20
2019-05-17T00:51:48.143Z,91.20
2019-05-17T00:54:17.660Z,91.20
2019-05-17T00:56:46.962Z,91.10
2019-05-17T00:59:17.025Z,91.10
2019-05-17T01:01:46.972Z,91.10
2019-05-17T01:04:17.546Z,91.10
2019-05-17T01:06:47.070Z,91.70
2019-05-17T01:09:17.128Z,90.80
2019-05-17T01:11:47.340Z,90.70
2019-05-17T01:14:17.735Z,90.60
2019-05-17T01:16:47.540Z,90.60
2019-05-17T01:19:16.996Z,90.60
2019-05-17T01:21:47.455Z,90.50
2019-05-17T01:24:17.455Z,90.70
2019-05-17T01:26:47.203Z,90.40
2019-05-17T01:29:17.515Z,90.40
2019-05-17T01:31:47.363Z,90.50
2019-05-17T01:34:16.874Z,90.50
2019-05-17T01:36:46.657Z,90.50
2019-05-17T01:39:20.624Z,90.50
2019-05-17T01:41:47.125Z,90.50
2019-05-17T01:44:16.810Z,90.50
2019-05-17T01:46:46.660Z,90.30
2019-05-17T01:49:16.608Z,90.10
2019-05-17T01:51:46.609Z,90.00
2019-05-17T01:54:17.720Z,89.70
2019-05-17T01:56:47.137Z,89.70
2019-05-17T01:59:17.336Z,89.80
2019-05-17T02:01:48.548Z,90.00
2019-05-17T02:04:17.936Z,90.00
2019-05-17T02:06:47.313Z,90.00
2019-05-17T02:09:33.432Z,90.00
2019-05-17T02:12:07.152Z,90.10
2019-05-17T02:14:39.412Z,90.90
2019-05-17T02:17:08.792Z,90.80
2019-05-17T02:19:38.384Z,90.00
2019-05-17T02:22:07.759Z,90.10
2019-05-17T02:24:37.187Z,90.10
2019-05-17T02:27:06.652Z,90.00
2019-05-17T02:29:36.036Z,90.00
2019-05-17T02:32:05.503Z,90.20
2019-05-17T02:34:34.872Z,90.00
2019-05-17T02:37:04.258Z,90.10
2019-05-17T02:39:51.834Z,89.90
2019-05-17T02:42:05.607Z,90.20
2019-05-17T02:44:34.991Z,90.20
2019-05-17T02:47:04.381Z,90.30
2019-05-17T02:49:33.750Z,90.30
2019-05-17T02:52:03.575Z,90.30
2019-05-17T02:54:33.256Z,90.00
2019-05-17T02:57:03.991Z,90.20
2019-05-17T02:59:33.442Z,90.00
2019-05-17T03:02:03.681Z,90.30
2019-05-17T03:04:33.612Z,90.30
2019-05-17T03:07:04.107Z,90.60
2019-05-17T03:09:33.967Z,90.30
2019-05-17T03:12:03.913Z,90.20
2019-05-17T03:14:33.517Z,90.20
2019-05-17T03:17:03.522Z,89.80
2019-05-17T03:19:33.191Z,90.10
2019-05-17T03:22:07.402Z,90.20
2019-05-17T03:24:34.002Z,90.30
2019-05-17T03:27:04.089Z,90.30
2019-05-17T03:29:33.848Z,90.30
2019-05-17T03:32:08.699Z,90.40
2019-05-17T03:34:37.139Z,90.50
2019-05-17T03:37:07.602Z,90.60
2019-05-17T03:39:37.149Z,90.60
2019-05-17T03:42:06.938Z,90.70
2019-05-17T03:44:36.557Z,90.70
2019-05-17T03:47:06.746Z,90.80
2019-05-17T03:49:39.351Z,90.80
2019-05-17T03:52:07.241Z,90.70
2019-05-17T03:54:36.608Z,90.60
2019-05-17T03:57:06.293Z,90.50
2019-05-17T03:59:36.406Z,90.40
2019-05-17T04:02:08.043Z,90.40
2019-05-17T04:04:37.724Z,90.40
2019-05-17T04:07:07.105Z,90.30
2019-05-17T04:09:37.744Z,90.40
2019-05-17T04:12:07.260Z,90.40
2019-05-17T04:14:36.637Z,90.50
2019-05-17T04:17:06.033Z,90.60
2019-05-17T04:19:35.420Z,90.80
2019-05-17T04:22:04.871Z,90.80
2019-05-17T04:24:34.547Z,90.80
2019-05-17T04:27:04.197Z,90.70
2019-05-17T04:29:33.628Z,90.80
2019-05-17T04:32:03.937Z,90.80
2019-05-17T04:34:34.100Z,90.80
2019-05-17T04:37:04.703Z,90.90
2019-05-17T04:39:34.113Z,90.80
2019-05-17T04:42:04.201Z,90.60
2019-05-17T04:44:33.863Z,90.50
2019-05-17T04:47:03.587Z,90.40
2019-05-17T04:49:33.594Z,90.40
2019-05-17T04:52:03.757Z,90.20
2019-05-17T04:54:33.628Z,90.10
2019-05-17T04:57:03.101Z,90.00
2019-05-17T04:59:33.778Z,90.00
2019-05-17T05:02:04.502Z,90.00
2019-05-17T05:04:38.374Z,90.90
2019-05-17T05:07:05.071Z,90.10
2019-05-17T05:09:34.454Z,90.10
2019-05-17T05:12:06.211Z,90.10
2019-05-17T05:14:34.951Z,90.00
2019-05-17T05:17:04.332Z,89.70
2019-05-17T05:19:33.717Z,89.40
2019-05-17T05:22:04.621Z,89.00
2019-05-17T05:24:34.269Z,88.90
2019-05-17T05:27:04.307Z,88.60
2019-05-17T05:29:33.685Z,88.50
2019-05-17T05:32:03.075Z,88.30
2019-05-17T05:34:32.455Z,88.30
2019-05-17T05:37:02.253Z,88.00
2019-05-17T05:39:32.130Z,88.10
2019-05-17T05:42:08.013Z,87.10
2019-05-17T05:44:32.579Z,86.70
2019-05-17T05:47:02.262Z,86.20
2019-05-17T05:49:32.374Z,86.50
2019-05-17T05:52:02.166Z,86.80
2019-05-17T05:54:32.090Z,86.10
2019-05-17T05:57:02.267Z,85.20
2019-05-17T05:59:34.951Z,85.20
2019-05-17T06:02:03.016Z,84.20
2019-05-17T06:04:32.534Z,84.00
2019-05-17T06:07:02.967Z,84.40
2019-05-17T06:09:32.769Z,83.90
2019-05-17T06:12:02.698Z,83.80
2019-05-17T06:14:32.433Z,83.50
2019-05-17T06:17:03.114Z,83.00
2019-05-17T06:19:32.720Z,82.40
2019-05-17T06:22:02.761Z,81.60
2019-05-17T06:24:32.255Z,80.70
2019-05-17T06:27:02.147Z,80.30
2019-05-17T06:29:32.760Z,79.90
2019-05-17T06:32:02.685Z,79.50
2019-05-17T06:34:32.936Z,79.30
2019-05-17T06:37:02.541Z,79.30
2019-05-17T06:39:32.925Z,78.20
2019-05-17T06:42:02.865Z,77.20
2019-05-17T06:44:32.692Z,76.90
2019-05-17T06:47:02.680Z,76.60
2019-05-17T06:49:32.336Z,76.10
2019-05-17T06:52:02.463Z,76.00
2019-05-17T06:54:33.114Z,76.00
2019-05-17T06:57:03.449Z,76.60
2019-05-17T06:59:32.888Z,75.30
2019-05-17T07:02:02.275Z,75.50
2019-05-17T07:04:31.670Z,74.40
2019-05-17T07:07:20.678Z,74.30
2019-05-17T07:09:50.189Z,74.00
2019-05-17T07:12:21.115Z,73.70
2019-05-17T07:14:50.761Z,72.30
2019-05-17T07:17:20.912Z,71.80
2019-05-17T07:19:50.740Z,71.30
2019-05-17T07:22:21.279Z,71.20
2019-05-17T07:24:51.166Z,70.50
2019-05-17T07:27:20.548Z,70.30
2019-05-17T07:29:49.915Z,69.50
2019-05-17T07:32:23.415Z,68.70
2019-05-17T07:34:52.814Z,69.70
2019-05-17T07:37:22.296Z,68.20
2019-05-17T07:40:01.098Z,67.50
2019-05-17T07:42:22.807Z,67.50
2019-05-17T07:44:52.184Z,67.30
2019-05-17T07:47:22.338Z,67.70
2019-05-17T07:49:54.593Z,67.90
2019-05-17T07:52:22.815Z,67.20
2019-05-17T07:54:52.643Z,66.90
2019-05-17T07:57:22.024Z,67.00
2019-05-17T07:59:51.401Z,66.60
2019-05-17T08:02:20.787Z,66.40
2019-05-17T08:04:50.339Z,66.60
2019-05-17T08:07:19.839Z,65.80
2019-05-17T08:09:50.743Z,65.80
2019-05-17T08:12:20.455Z,66.30
2019-05-17T08:14:50.376Z,65.80
2019-05-17T08:17:20.111Z,66.10
2019-05-17T08:19:49.886Z,66.00
2019-05-17T08:22:20.173Z,66.30
2019-05-17T08:24:49.711Z,66.30
2019-05-17T08:27:20.119Z,66.10
2019-05-17T08:29:50.073Z,65.40
2019-05-17T08:32:20.846Z,65.00
2019-05-17T08:34:51.894Z,64.40
2019-05-17T08:37:21.436Z,63.50
2019-05-17T08:39:51.170Z,63.50
2019-05-17T08:42:20.608Z,63.00
2019-05-17T08:44:49.988Z,62.70
2019-05-17T08:47:20.996Z,62.50
2019-05-17T08:49:50.467Z,62.60
2019-05-17T08:52:20.138Z,61.80
2019-05-17T08:54:49.762Z,62.40
2019-05-17T08:57:20.583Z,61.90
2019-05-17T08:59:50.013Z,62.50
2019-05-17T09:02:20.027Z,62.20
2019-05-17T09:04:49.850Z,63.20
2019-05-17T09:07:20.358Z,62.50
2019-05-17T09:09:50.375Z,62.10
2019-05-17T09:12:20.720Z,61.10
2019-05-17T09:14:50.243Z,61.60
2019-05-17T09:17:19.623Z,61.20
2019-05-17T09:19:50.987Z,60.90
2019-05-17T09:22:20.106Z,59.80
2019-05-17T09:24:50.124Z,59.10
2019-05-17T09:27:19.901Z,58.80
2019-05-17T09:29:49.839Z,58.80
2019-05-17T09:32:20.083Z,58.90
2019-05-17T09:34:50.001Z,58.90
2019-05-17T09:37:22.333Z,58.80
2019-05-17T09:39:50.858Z,58.60
2019-05-17T09:42:20.934Z,58.10
2019-05-17T09:44:50.690Z,57.70
2019-05-17T09:47:20.751Z,56.50
2019-05-17T09:49:50.314Z,56.50
2019-05-17T09:52:20.106Z,55.50
2019-05-17T09:54:50.397Z,54.80
2019-05-17T09:57:20.437Z,54.20
2019-05-17T09:59:50.210Z,54.00
2019-05-17T10:02:20.369Z,53.50
2019-05-17T10:04:50.403Z,52.90
2019-05-17T10:07:20.752Z,53.30
2019-05-17T10:09:51.625Z,52.70
2019-05-17T10:12:21.059Z,52.30
2019-05-17T10:14:50.792Z,52.40
2019-05-17T10:17:21.194Z,53.00
2019-05-17T10:19:50.808Z,53.10
2019-05-17T10:22:20.240Z,52.70
2019-05-17T10:24:49.583Z,52.80
2019-05-17T10:27:19.637Z,52.00
2019-05-17T10:29:50.145Z,52.70
2019-05-17T10:32:20.550Z,52.90
2019-05-17T10:34:50.044Z,52.40
2019-05-17T10:37:20.449Z,52.10
2019-05-17T10:39:50.546Z,52.00
2019-05-17T10:42:20.908Z,52.00
2019-05-17T10:44:51.396Z,51.10
2019-05-17T10:47:21.613Z,50.80
2019-05-17T10:49:50.990Z,50.10
2019-05-17T10:52:20.472Z,49.80
2019-05-17T10:54:49.845Z,49.80
2019-05-17T10:57:19.507Z,49.60
2019-05-17T10:59:49.924Z,49.20
2019-05-17T11:02:19.785Z,48.90
2019-05-17T11:04:50.660Z,49.20
2019-05-17T11:07:20.109Z,49.30
2019-05-17T11:09:50.887Z,49.70
2019-05-17T11:12:20.735Z,49.40
2019-05-17T11:15:01.365Z,49.70
2019-05-17T11:17:21.735Z,49.70
2019-05-17T11:19:51.114Z,49.40
2019-05-17T11:22:20.491Z,49.50
2019-05-17T11:24:49.881Z,49.40
2019-05-17T11:29:55.449Z,49.10
2019-05-17T11:32:24.822Z,48.70
2019-05-17T11:34:54.208Z,48.50
2019-05-17T11:37:23.803Z,48.10
2019-05-17T11:39:53.160Z,48.00
2019-05-17T11:42:22.580Z,48.50
2019-05-17T11:44:51.946Z,48.20
2019-05-17T11:47:21.325Z,47.80
2019-05-17T11:49:50.736Z,47.60
2019-05-17T11:52:20.119Z,47.60
2019-05-17T11:54:49.589Z,47.00
2019-05-17T11:57:18.962Z,46.90
2019-05-17T11:59:48.649Z,46.60
2019-05-17T12:02:21.380Z,46.30
2019-05-17T12:04:49.221Z,46.20
2019-05-17T12:07:18.547Z,46.10
2019-05-17T12:09:48.251Z,46.00
2019-05-17T12:12:17.902Z,45.80
2019-05-17T12:14:47.299Z,46.70
2019-05-17T12:17:16.683Z,46.90
2019-05-17T12:19:46.382Z,46.60
2019-05-17T12:22:15.785Z,46.20
2019-05-17T12:24:45.511Z,45.60
2019-05-17T12:29:43.982Z,44.80
2019-05-17T12:32:16.886Z,45.00
2019-05-17T12:34:44.619Z,45.20
2019-05-17T12:37:14.068Z,45.20
2019-05-17T12:39:43.450Z,45.40
2019-05-17T12:42:13.173Z,45.00
2019-05-17T12:44:43.415Z,45.20
2019-05-17T12:47:12.784Z,45.10
2019-05-17T12:49:42.149Z,45.20
2019-05-17T12:52:11.538Z,44.90
2019-05-17T12:54:40.912Z,44.80
2019-05-17T12:57:10.313Z,44.80
2019-05-17T12:59:39.709Z,44.70
2019-05-17T13:02:12.134Z,44.30
2019-05-17T13:04:40.172Z,44.20
2019-05-17T13:07:09.934Z,44.30
2019-05-17T13:09:39.287Z,44.70
2019-05-17T13:12:08.643Z,45.60
2019-05-17T13:14:38.024Z,45.00
2019-05-17T13:17:07.390Z,45.10
2019-05-17T13:19:36.816Z,45.00
2019-05-17T13:22:06.478Z,44.80
2019-05-17T13:24:35.904Z,44.70
2019-05-17T13:29:43.473Z,45.00
2019-05-17T13:32:12.833Z,45.00
2019-05-17T13:34:42.212Z,44.70
2019-05-17T13:37:11.624Z,44.70
2019-05-17T13:39:41.113Z,44.60
2019-05-17T13:42:10.575Z,44.70
2019-05-17T13:44:39.943Z,44.10
2019-05-17T13:47:09.332Z,44.20
2019-05-17T13:49:38.750Z,44.60
2019-05-17T13:52:08.490Z,43.90
2019-05-17T13:54:37.893Z,44.00
2019-05-17T13:57:07.255Z,44.00
2019-05-17T13:59:36.744Z,44.20
2019-05-17T14:02:06.220Z,44.40
2019-05-17T14:04:35.572Z,44.70
2019-05-17T14:07:05.020Z,44.50
2019-05-17T14:09:34.489Z,44.80
2019-05-17T14:12:03.860Z,44.90
2019-05-17T14:14:33.532Z,44.90
2019-05-17T14:17:02.909Z,44.30
2019-05-17T14:19:32.368Z,44.40
2019-05-17T14:22:01.769Z,43.90
2019-05-17T14:24:31.644Z,43.90
2019-05-17T14:27:01.037Z,44.10
2019-05-17T14:29:30.462Z,44.20
2019-05-17T14:31:59.858Z,44.00
2019-05-17T14:34:29.253Z,44.10
2019-05-17T14:36:59.159Z,44.00
2019-05-17T14:39:28.635Z,44.40
2019-05-17T14:41:58.068Z,44.10
2019-05-17T14:44:27.537Z,43.70
2019-05-17T14:46:56.917Z,43.80
2019-05-17T14:49:26.298Z,44.00
2019-05-17T14:51:56.049Z,43.70
2019-05-17T14:54:25.503Z,43.50
2019-05-17T14:56:54.875Z,43.40
2019-05-17T14:59:24.702Z,43.50
2019-05-17T15:01:54.095Z,43.50
2019-05-17T15:04:23.471Z,43.50
2019-05-17T15:06:52.881Z,43.10
2019-05-17T15:09:22.261Z,43.40
2019-05-17T15:11:51.707Z,42.90
2019-05-17T15:14:21.083Z,42.80
2019-05-17T15:16:50.471Z,43.00
2019-05-17T15:19:19.866Z,43.00
2019-05-17T15:21:49.621Z,43.00
2019-05-17T15:24:19.021Z,42.80
2019-05-17T15:27:04.094Z,42.90
2019-05-17T15:29:20.497Z,42.90
2019-05-17T15:31:52.177Z,42.80
2019-05-17T15:34:21.075Z,42.80
2019-05-17T15:36:50.500Z,42.80
2019-05-17T15:39:19.952Z,42.90
2019-05-17T15:41:49.304Z,42.80
2019-05-17T15:44:18.725Z,43.00
2019-05-17T15:46:48.237Z,42.30
2019-05-17T15:49:17.682Z,42.20
2019-05-17T15:51:47.232Z,42.20
2019-05-17T15:54:16.586Z,42.40
2019-05-17T15:56:45.979Z,42.20
2019-05-17T15:59:15.730Z,42.40
2019-05-17T16:01:45.154Z,42.50
2019-05-17T16:04:14.504Z,42.50
2019-05-17T16:06:43.951Z,42.50
2019-05-17T16:09:13.274Z,42.50
2019-05-17T16:11:42.652Z,42.80
2019-05-17T16:14:12.051Z,42.80
2019-05-17T16:16:41.461Z,42.80
2019-05-17T16:19:10.830Z,42.80
2019-05-17T16:21:40.305Z,42.80
2019-05-17T16:24:10.006Z,42.80
2019-05-17T16:26:39.269Z,42.60
2019-05-17T16:29:08.938Z,42.60
2019-05-17T16:31:38.305Z,42.70
2019-05-17T16:34:07.500Z,42.90
2019-05-17T16:36:36.909Z,42.60
2019-05-17T16:39:08.447Z,42.70
2019-05-17T16:41:38.009Z,43.50
2019-05-17T16:44:07.637Z,43.20
2019-05-17T16:46:37.083Z,43.50
2019-05-17T16:49:06.462Z,43.90
2019-05-17T16:51:35.881Z,44.10
2019-05-17T16:54:05.398Z,44.50
2019-05-17T16:56:34.793Z,44.50
2019-05-17T16:59:04.343Z,44.60
2019-05-17T17:01:33.708Z,44.70
2019-05-17T17:04:03.160Z,45.00
2019-05-17T17:06:32.690Z,45.20
2019-05-17T17:09:02.110Z,45.20
2019-05-17T17:11:31.494Z,45.40
2019-05-17T17:14:00.874Z,45.60
2019-05-17T17:16:30.323Z,45.70
2019-05-17T17:18:59.651Z,45.80
2019-05-17T17:21:29.054Z,45.80
2019-05-17T17:23:58.782Z,46.10
2019-05-17T17:26:28.143Z,46.20
2019-05-17T17:31:44.722Z,46.20
2019-05-17T17:34:14.150Z,46.20
2019-05-17T17:36:43.673Z,46.20
2019-05-17T17:39:13.109Z,46.60
2019-05-17T17:41:42.493Z,46.10
2019-05-17T17:44:11.862Z,46.10
2019-05-17T17:46:41.254Z,46.10
2019-05-17T17:49:10.625Z,46.20
2019-05-17T17:51:40.009Z,46.30
2019-05-17T17:54:09.585Z,46.40
2019-05-17T17:56:38.991Z,46.70
2019-05-17T17:59:08.412Z,46.80
2019-05-17T18:01:37.765Z,47.10
2019-05-17T18:04:07.510Z,47.20
2019-05-17T18:06:36.885Z,48.10
2019-05-17T18:09:06.916Z,47.80
2019-05-17T18:11:36.294Z,48.10
2019-05-17T18:14:13.249Z,48.30
2019-05-17T18:16:37.314Z,48.50
2019-05-17T18:19:06.659Z,49.00
2019-05-17T18:21:36.045Z,49.30
2019-05-17T18:24:05.502Z,49.60
2019-05-17T18:26:34.911Z,49.70
2019-05-17T18:29:07.682Z,49.90
2019-05-17T18:31:35.507Z,50.10
2019-05-17T18:34:05.221Z,50.50
2019-05-17T18:36:34.668Z,50.70
2019-05-17T18:39:06.665Z,50.90
2019-05-17T18:41:36.407Z,51.10
2019-05-17T18:44:05.992Z,51.30
2019-05-17T18:46:35.559Z,51.50
2019-05-17T18:49:05.343Z,51.70
2019-05-17T18:51:34.807Z,52.00
2019-05-17T18:54:05.294Z,52.20
2019-05-17T18:56:34.674Z,52.40
2019-05-17T18:59:04.063Z,52.70
2019-05-17T19:01:33.728Z,52.70
2019-05-17T19:04:03.117Z,52.80
2019-05-17T19:06:32.510Z,53.10
2019-05-17T19:09:01.876Z,53.80
2019-05-17T19:11:31.635Z,53.50
2019-05-17T19:14:01.002Z,53.70
2019-05-17T19:16:30.415Z,53.50
2019-05-17T19:18:59.845Z,53.90
2019-05-17T19:21:29.281Z,54.20
2019-05-17T19:23:58.668Z,54.30
2019-05-17T19:26:28.037Z,54.40
2019-05-17T19:28:57.418Z,54.50
2019-05-17T19:31:26.802Z,54.80
2019-05-17T19:33:56.182Z,54.90
2019-05-17T19:36:25.561Z,55.10
2019-05-17T19:38:54.960Z,55.20
2019-05-17T19:41:24.347Z,55.40
2019-05-17T19:43:53.716Z,56.00
2019-05-17T19:46:23.478Z,55.60
2019-05-17T19:48:52.850Z,55.80
2019-05-17T19:51:22.233Z,55.90
2019-05-17T19:53:51.652Z,56.00
2019-05-17T19:56:21.039Z,56.10
2019-05-17T19:58:50.408Z,56.30
2019-05-17T20:01:19.797Z,56.30
2019-05-17T20:03:49.175Z,56.50
2019-05-17T20:06:18.570Z,57.00
2019-05-17T20:08:48.180Z,56.80
2019-05-17T20:11:17.555Z,56.90
2019-05-17T20:13:46.930Z,56.90
2019-05-17T20:16:16.324Z,57.00
2019-05-17T20:18:45.700Z,57.10
2019-05-17T20:21:15.085Z,57.20
2019-05-17T20:23:44.471Z,57.20
2019-05-17T20:26:13.847Z,57.40
2019-05-17T20:28:43.222Z,57.40
2019-05-17T20:31:12.846Z,57.50
2019-05-17T20:33:42.242Z,57.50
2019-05-17T20:36:11.622Z,57.70
2019-05-17T20:38:41.295Z,57.90
2019-05-17T20:41:10.654Z,57.90
2019-05-17T20:43:40.035Z,58.00
2019-05-17T20:46:09.428Z,58.00
2019-05-17T20:48:38.801Z,58.10
2019-05-17T20:51:08.206Z,58.20
2019-05-17T20:53:37.618Z,58.20
2019-05-17T20:56:07.000Z,58.30
2019-05-17T20:58:36.400Z,58.30
2019-05-17T21:01:05.787Z,58.50
2019-05-17T21:03:35.159Z,58.50
2019-05-17T21:06:04.538Z,58.60
2019-05-17T21:08:45.488Z,58.70
2019-05-17T21:11:05.022Z,58.80
2019-05-17T21:13:34.399Z,58.90
2019-05-17T21:16:04.105Z,59.00
2019-05-17T21:18:33.490Z,59.10
2019-05-17T21:21:02.877Z,59.20
2019-05-17T21:23:32.255Z,59.30
2019-05-17T21:26:01.637Z,59.40
2019-05-17T21:28:31.017Z,59.60
2019-05-17T21:31:00.432Z,59.50
2019-05-17T21:33:29.817Z,59.50
2019-05-17T21:35:59.209Z,59.70
2019-05-17T21:38:28.664Z,59.80
2019-05-17T21:40:59.366Z,59.70
2019-05-17T21:43:28.745Z,59.90
2019-05-17T21:46:04.471Z,60.00
2019-05-17T21:48:34.192Z,60.00
2019-05-17T21:51:03.570Z,60.20
2019-05-17T21:53:33.147Z,60.20
2019-05-17T21:56:02.524Z,60.40
2019-05-17T21:58:31.911Z,60.30
2019-05-17T22:01:05.957Z,60.60
2019-05-17T22:03:34.604Z,60.50
2019-05-17T22:06:03.926Z,59.50
2019-05-17T22:08:33.373Z,60.40
2019-05-17T22:11:02.724Z,60.60
2019-05-17T22:13:32.098Z,60.80
2019-05-17T22:16:01.541Z,60.90
2019-05-17T22:18:30.911Z,61.20
2019-05-17T22:21:00.296Z,61.30
2019-05-17T22:23:29.695Z,61.50
2019-05-17T22:25:59.178Z,61.60
2019-05-17T22:28:28.553Z,61.70
2019-05-17T22:30:57.944Z,62.20
2019-05-17T22:33:27.321Z,62.50
2019-05-17T22:35:56.708Z,62.40
2019-05-17T22:38:26.640Z,62.70
2019-05-17T22:40:56.022Z,62.90
2019-05-17T22:43:26.303Z,62.90
2019-05-17T22:45:55.714Z,63.10
2019-05-17T22:48:25.089Z,63.20
2019-05-17T22:50:54.477Z,63.30
2019-05-17T22:53:23.871Z,63.40
2019-05-17T22:55:53.255Z,63.70
2019-05-17T22:58:22.632Z,63.80
2019-05-17T23:00:52.073Z,64.00
2019-05-17T23:03:21.443Z,64.80
2019-05-17T23:05:50.832Z,64.30
2019-05-17T23:08:20.227Z,64.60
2019-05-17T23:10:49.612Z,64.60
2019-05-17T23:13:18.982Z,64.80
2019-05-17T23:15:55.773Z,65.00
2019-05-17T23:18:25.145Z,65.20
2019-05-17T23:20:54.518Z,65.30
2019-05-17T23:23:23.933Z,65.50
2019-05-17T23:25:53.308Z,65.70
2019-05-17T23:28:22.847Z,65.70
2019-05-17T23:30:52.251Z,65.90
2019-05-17T23:33:21.633Z,66.10
2019-05-17T23:35:51.012Z,66.40
2019-05-17T23:38:20.426Z,66.40
2019-05-17T23:40:49.808Z,66.70
2019-05-17T23:43:19.189Z,66.80
2019-05-17T23:45:49.631Z,66.90
2019-05-17T23:48:19.270Z,67.40
2019-05-17T23:50:48.648Z,67.30
2019-05-17T23:53:18.036Z,67.70
2019-05-17T23:55:47.425Z,67.80
2019-05-17T23:58:16.802Z,67.80
